CEB069 RPLL-RPVA
Flight info
| Callsign | CEB069 |
|---|---|
| Flight time | 0h 59m |
| Altitude | 310 |
| Route | IPATA2V IPATA B462 ARREX ARREX2R |
| Aircraft | A320/M-V/N |
Departure
| Time | 2026-04-24 19:47 |
|---|---|
| Airport | Ninoy Aquino International Airport (RPLL) |
Arrival
| Time | 2026-04-24 20:47 |
|---|---|
| Airport | Daniel Z. Romualdez Airport (RPVA) |
| Time | Latitude | Longitude | Altitude | Speed | Heading |
|---|---|---|---|---|---|
| 2026-04-24 19:17 | 14.51666 | 121.01520 | 60 ft | 0 kts | 44° |
| 2026-04-24 19:34 | 14.51655 | 121.01509 | 61 ft | 4 kts | 45° |
| 2026-04-24 19:34 | 14.51636 | 121.01488 | 60 ft | 4 kts | 47° |
| 2026-04-24 19:35 | 14.51617 | 121.01468 | 60 ft | 4 kts | 42° |
| 2026-04-24 19:35 | 14.51597 | 121.01454 | 64 ft | 4 kts | 1° |
| 2026-04-24 19:35 | 14.51580 | 121.01462 | 63 ft | 4 kts | 314° |
| 2026-04-24 19:35 | 14.51564 | 121.01479 | 67 ft | 1 kts | 315° |
| 2026-04-24 19:38 | 14.51567 | 121.01477 | 67 ft | 2 kts | 315° |
| 2026-04-24 19:38 | 14.51593 | 121.01450 | 65 ft | 8 kts | 315° |
| 2026-04-24 19:38 | 14.51639 | 121.01401 | 59 ft | 9 kts | 314° |
| 2026-04-24 19:39 | 14.51686 | 121.01352 | 59 ft | 11 kts | 315° |
| 2026-04-24 19:39 | 14.51755 | 121.01282 | 66 ft | 15 kts | 314° |
| 2026-04-24 19:39 | 14.51834 | 121.01200 | 64 ft | 17 kts | 315° |
| 2026-04-24 19:39 | 14.51923 | 121.01109 | 65 ft | 16 kts | 315° |
| 2026-04-24 19:40 | 14.51996 | 121.01033 | 65 ft | 15 kts | 315° |
| 2026-04-24 19:40 | 14.52067 | 121.00960 | 62 ft | 14 kts | 315° |
| 2026-04-24 19:40 | 14.52131 | 121.00893 | 64 ft | 13 kts | 315° |
| 2026-04-24 19:40 | 14.52190 | 121.00833 | 66 ft | 11 kts | 315° |
| 2026-04-24 19:41 | 14.52244 | 121.00777 | 64 ft | 10 kts | 315° |
| 2026-04-24 19:41 | 14.52295 | 121.00726 | 64 ft | 10 kts | 315° |
| 2026-04-24 19:41 | 14.52343 | 121.00675 | 64 ft | 9 kts | 315° |
| 2026-04-24 19:41 | 14.52386 | 121.00631 | 64 ft | 8 kts | 315° |
| 2026-04-24 19:42 | 14.52425 | 121.00590 | 63 ft | 8 kts | 315° |
| 2026-04-24 19:42 | 14.52461 | 121.00554 | 67 ft | 7 kts | 315° |
| 2026-04-24 19:42 | 14.52490 | 121.00520 | 68 ft | 6 kts | 302° |
| 2026-04-24 19:42 | 14.52480 | 121.00483 | 63 ft | 6 kts | 225° |
| 2026-04-24 19:43 | 14.52453 | 121.00456 | 66 ft | 5 kts | 224° |
| 2026-04-24 19:43 | 14.52417 | 121.00420 | 68 ft | 10 kts | 224° |
| 2026-04-24 19:43 | 14.52360 | 121.00399 | 63 ft | 9 kts | 146° |
| 2026-04-24 19:43 | 14.52318 | 121.00448 | 63 ft | 9 kts | 134° |
| 2026-04-24 19:44 | 14.52274 | 121.00492 | 63 ft | 9 kts | 134° |
| 2026-04-24 19:44 | 14.52263 | 121.00504 | 66 ft | 0 kts | 134° |
| 2026-04-24 19:46 | 14.52205 | 121.00565 | 66 ft | 45 kts | 134° |
| 2026-04-24 19:46 | 14.51800 | 121.00985 | 65 ft | 116 kts | 135° |
| 2026-04-24 19:47 | 14.51093 | 121.01704 | 112 ft | 166 kts | 136° |
| 2026-04-24 19:47 | 14.50238 | 121.02559 | 699 ft | 175 kts | 135° |
| 2026-04-24 19:47 | 14.49337 | 121.03526 | 1117 ft | 199 kts | 133° |
| 2026-04-24 19:47 | 14.48319 | 121.04678 | 1378 ft | 234 kts | 131° |
| 2026-04-24 19:48 | 14.47161 | 121.06054 | 1601 ft | 274 kts | 129° |
| 2026-04-24 19:48 | 14.45836 | 121.07629 | 2078 ft | 296 kts | 133° |
| 2026-04-24 19:48 | 14.43091 | 121.10425 | 4898 ft | 271 kts | 128° |
| 2026-04-24 19:49 | 14.40874 | 121.13611 | 6835 ft | 276 kts | 123° |
| 2026-04-24 19:49 | 14.38755 | 121.16988 | 8574 ft | 284 kts | 123° |
| 2026-04-24 19:50 | 14.35428 | 121.22385 | 10502 ft | 321 kts | 123° |
| 2026-04-24 19:50 | 14.34192 | 121.24376 | 11001 ft | 335 kts | 123° |
| 2026-04-24 19:51 | 14.31650 | 121.28460 | 12503 ft | 343 kts | 122° |
| 2026-04-24 19:51 | 14.30352 | 121.30543 | 13256 ft | 347 kts | 122° |
| 2026-04-24 19:52 | 14.27711 | 121.34785 | 14582 ft | 355 kts | 122° |
| 2026-04-24 19:52 | 14.26366 | 121.36944 | 15178 ft | 359 kts | 122° |
| 2026-04-24 19:52 | 14.25008 | 121.39124 | 15763 ft | 364 kts | 123° |
| 2026-04-24 19:52 | 14.23631 | 121.41330 | 16342 ft | 368 kts | 123° |
| 2026-04-24 19:53 | 14.22234 | 121.43567 | 16911 ft | 373 kts | 123° |
| 2026-04-24 19:53 | 14.20820 | 121.45828 | 17492 ft | 377 kts | 123° |
| 2026-04-24 19:53 | 14.17964 | 121.50402 | 18600 ft | 385 kts | 123° |
| 2026-04-24 19:54 | 14.16511 | 121.52732 | 19117 ft | 388 kts | 123° |
| 2026-04-24 19:54 | 14.15042 | 121.55080 | 19595 ft | 392 kts | 124° |
| 2026-04-24 19:54 | 14.13559 | 121.57451 | 20110 ft | 395 kts | 124° |
| 2026-04-24 19:54 | 14.12062 | 121.59836 | 20634 ft | 397 kts | 124° |
| 2026-04-24 19:55 | 14.11555 | 121.60644 | 20811 ft | 398 kts | 124° |
| 2026-04-24 19:55 | 14.08706 | 121.64346 | 21630 ft | 401 kts | 138° |
| 2026-04-24 19:55 | 14.06526 | 121.66148 | 22119 ft | 402 kts | 145° |
| 2026-04-24 19:55 | 14.04269 | 121.67861 | 22617 ft | 404 kts | 145° |
| 2026-04-24 19:56 | 14.01991 | 121.69590 | 23125 ft | 407 kts | 144° |
| 2026-04-24 19:56 | 14.00482 | 121.70738 | 23450 ft | 409 kts | 144° |
| 2026-04-24 19:56 | 13.98192 | 121.72487 | 23896 ft | 410 kts | 144° |
| 2026-04-24 19:56 | 13.95112 | 121.74837 | 24442 ft | 413 kts | 144° |
| 2026-04-24 19:57 | 13.93573 | 121.76010 | 24705 ft | 415 kts | 144° |
| 2026-04-24 19:57 | 13.91245 | 121.77784 | 25094 ft | 417 kts | 144° |
| 2026-04-24 19:57 | 13.88135 | 121.80155 | 25613 ft | 421 kts | 143° |
| 2026-04-24 19:57 | 13.85945 | 121.82163 | 25978 ft | 425 kts | 134° |
| 2026-04-24 19:58 | 13.84634 | 121.83730 | 26231 ft | 427 kts | 130° |
| 2026-04-24 19:58 | 13.82109 | 121.86861 | 26732 ft | 430 kts | 130° |
| 2026-04-24 19:58 | 13.80837 | 121.88435 | 26973 ft | 432 kts | 130° |
| 2026-04-24 19:58 | 13.78885 | 121.90850 | 27347 ft | 435 kts | 130° |
| 2026-04-24 19:59 | 13.76971 | 121.93216 | 27702 ft | 437 kts | 131° |
| 2026-04-24 19:59 | 13.75015 | 121.95630 | 28061 ft | 440 kts | 131° |
| 2026-04-24 19:59 | 13.73055 | 121.98049 | 28417 ft | 442 kts | 131° |
| 2026-04-24 19:59 | 13.71070 | 122.00492 | 28769 ft | 445 kts | 131° |
| 2026-04-24 20:00 | 13.69071 | 122.02952 | 29118 ft | 448 kts | 131° |
| 2026-04-24 20:00 | 13.67072 | 122.05418 | 29460 ft | 450 kts | 131° |
| 2026-04-24 20:00 | 13.65057 | 122.07899 | 29803 ft | 453 kts | 131° |
| 2026-04-24 20:00 | 13.63035 | 122.10389 | 30138 ft | 455 kts | 131° |
| 2026-04-24 20:01 | 13.61000 | 122.12897 | 30431 ft | 457 kts | 131° |
| 2026-04-24 20:01 | 13.58957 | 122.15414 | 30714 ft | 459 kts | 131° |
| 2026-04-24 20:01 | 13.56902 | 122.17943 | 30933 ft | 461 kts | 131° |
| 2026-04-24 20:02 | 13.52883 | 122.22888 | 30992 ft | 434 kts | 131° |
| 2026-04-24 20:02 | 13.49098 | 122.27541 | 30990 ft | 423 kts | 131° |
| 2026-04-24 20:03 | 13.45316 | 122.32178 | 30992 ft | 422 kts | 131° |
| 2026-04-24 20:03 | 13.41551 | 122.36805 | 30991 ft | 421 kts | 131° |
| 2026-04-24 20:04 | 13.37807 | 122.41403 | 30992 ft | 421 kts | 131° |
| 2026-04-24 20:04 | 13.34043 | 122.46022 | 30990 ft | 421 kts | 131° |
| 2026-04-24 20:05 | 13.30286 | 122.50628 | 30986 ft | 420 kts | 131° |
| 2026-04-24 20:05 | 13.26528 | 122.55234 | 30979 ft | 420 kts | 131° |
| 2026-04-24 20:06 | 13.22794 | 122.59807 | 30974 ft | 420 kts | 131° |
| 2026-04-24 20:06 | 13.19023 | 122.64418 | 30971 ft | 420 kts | 131° |
| 2026-04-24 20:07 | 13.15899 | 122.68239 | 30972 ft | 420 kts | 131° |
| 2026-04-24 20:07 | 13.11522 | 122.73596 | 30972 ft | 421 kts | 131° |
| 2026-04-24 20:08 | 13.07762 | 122.78196 | 30973 ft | 421 kts | 131° |
| 2026-04-24 20:08 | 13.03996 | 122.82796 | 30974 ft | 420 kts | 131° |
| 2026-04-24 20:09 | 13.00225 | 122.87395 | 30977 ft | 420 kts | 131° |
| 2026-04-24 20:09 | 12.96484 | 122.91962 | 30971 ft | 420 kts | 131° |
| 2026-04-24 20:10 | 12.92724 | 122.96559 | 30970 ft | 420 kts | 131° |
| 2026-04-24 20:10 | 12.88950 | 123.01155 | 30973 ft | 421 kts | 131° |
| 2026-04-24 20:11 | 12.85178 | 123.05743 | 30975 ft | 421 kts | 131° |
| 2026-04-24 20:11 | 12.81413 | 123.10333 | 30975 ft | 421 kts | 131° |
| 2026-04-24 20:12 | 12.77644 | 123.14931 | 30978 ft | 421 kts | 131° |
| 2026-04-24 20:12 | 12.73873 | 123.19515 | 30978 ft | 421 kts | 131° |
| 2026-04-24 20:13 | 12.70123 | 123.24070 | 30978 ft | 421 kts | 131° |
| 2026-04-24 20:13 | 12.66349 | 123.28656 | 30979 ft | 421 kts | 131° |
| 2026-04-24 20:14 | 12.62572 | 123.33244 | 30979 ft | 421 kts | 131° |
| 2026-04-24 20:14 | 12.58800 | 123.37827 | 30982 ft | 421 kts | 131° |
| 2026-04-24 20:15 | 12.55039 | 123.42389 | 30982 ft | 421 kts | 131° |
| 2026-04-24 20:15 | 12.51250 | 123.46976 | 30976 ft | 420 kts | 131° |
| 2026-04-24 20:16 | 12.47478 | 123.51552 | 30974 ft | 420 kts | 131° |
| 2026-04-24 20:16 | 12.43726 | 123.56104 | 30850 ft | 421 kts | 131° |
| 2026-04-24 20:16 | 12.41844 | 123.58386 | 30575 ft | 417 kts | 131° |
| 2026-04-24 20:17 | 12.39976 | 123.60650 | 30304 ft | 415 kts | 131° |
| 2026-04-24 20:17 | 12.36276 | 123.65129 | 29705 ft | 408 kts | 131° |
| 2026-04-24 20:17 | 12.34451 | 123.67335 | 29378 ft | 405 kts | 131° |
| 2026-04-24 20:18 | 12.33245 | 123.68792 | 29141 ft | 403 kts | 131° |
| 2026-04-24 20:18 | 12.30827 | 123.71713 | 28621 ft | 400 kts | 131° |
| 2026-04-24 20:18 | 12.29058 | 123.73853 | 28237 ft | 398 kts | 131° |
| 2026-04-24 20:18 | 12.27278 | 123.76007 | 27858 ft | 395 kts | 131° |
| 2026-04-24 20:19 | 12.25486 | 123.78173 | 27486 ft | 392 kts | 130° |
| 2026-04-24 20:19 | 12.23751 | 123.80266 | 27125 ft | 389 kts | 131° |
| 2026-04-24 20:19 | 12.22005 | 123.82372 | 26760 ft | 387 kts | 130° |
| 2026-04-24 20:19 | 12.20276 | 123.84462 | 26405 ft | 384 kts | 130° |
| 2026-04-24 20:20 | 12.18558 | 123.86542 | 26050 ft | 381 kts | 130° |
| 2026-04-24 20:20 | 12.16850 | 123.88610 | 25699 ft | 378 kts | 130° |
| 2026-04-24 20:20 | 12.15155 | 123.90658 | 25357 ft | 375 kts | 130° |
| 2026-04-24 20:20 | 12.13473 | 123.92685 | 25023 ft | 372 kts | 130° |
| 2026-04-24 20:21 | 12.11806 | 123.94696 | 24694 ft | 369 kts | 130° |
| 2026-04-24 20:21 | 12.10153 | 123.96688 | 24356 ft | 367 kts | 130° |
| 2026-04-24 20:21 | 12.08529 | 123.98649 | 24024 ft | 365 kts | 130° |
| 2026-04-24 20:21 | 12.06887 | 124.00629 | 23700 ft | 364 kts | 129° |
| 2026-04-24 20:22 | 12.05253 | 124.02598 | 23332 ft | 361 kts | 129° |
| 2026-04-24 20:22 | 12.03632 | 124.04549 | 22948 ft | 359 kts | 129° |
| 2026-04-24 20:22 | 12.02023 | 124.06486 | 22576 ft | 357 kts | 130° |
| 2026-04-24 20:22 | 12.00422 | 124.08417 | 22204 ft | 355 kts | 130° |
| 2026-04-24 20:23 | 11.98829 | 124.10338 | 21824 ft | 354 kts | 130° |
| 2026-04-24 20:23 | 11.97244 | 124.12247 | 21459 ft | 351 kts | 130° |
| 2026-04-24 20:23 | 11.95667 | 124.14148 | 21091 ft | 349 kts | 130° |
| 2026-04-24 20:23 | 11.94097 | 124.16037 | 20730 ft | 347 kts | 130° |
| 2026-04-24 20:24 | 11.93064 | 124.17279 | 20489 ft | 346 kts | 130° |
| 2026-04-24 20:24 | 11.90999 | 124.19752 | 20038 ft | 344 kts | 130° |
| 2026-04-24 20:24 | 11.89453 | 124.21613 | 19699 ft | 343 kts | 130° |
| 2026-04-24 20:24 | 11.87910 | 124.23474 | 19343 ft | 341 kts | 130° |
| 2026-04-24 20:25 | 11.86379 | 124.25316 | 19008 ft | 338 kts | 130° |
| 2026-04-24 20:25 | 11.84867 | 124.27147 | 18671 ft | 337 kts | 130° |
| 2026-04-24 20:25 | 11.83370 | 124.28983 | 18333 ft | 335 kts | 130° |
| 2026-04-24 20:25 | 11.81881 | 124.30814 | 17965 ft | 334 kts | 130° |
| 2026-04-24 20:26 | 11.80403 | 124.32634 | 17584 ft | 332 kts | 129° |
| 2026-04-24 20:26 | 11.78935 | 124.34442 | 17204 ft | 329 kts | 129° |
| 2026-04-24 20:26 | 11.77478 | 124.36234 | 16837 ft | 328 kts | 129° |
| 2026-04-24 20:26 | 11.76020 | 124.38022 | 16470 ft | 326 kts | 130° |
| 2026-04-24 20:27 | 11.74590 | 124.39775 | 16110 ft | 324 kts | 130° |
| 2026-04-24 20:27 | 11.73150 | 124.41539 | 15752 ft | 323 kts | 130° |
| 2026-04-24 20:27 | 11.71710 | 124.43303 | 15393 ft | 322 kts | 130° |
| 2026-04-24 20:27 | 11.70282 | 124.45056 | 15039 ft | 320 kts | 130° |
| 2026-04-24 20:28 | 11.68856 | 124.46805 | 14695 ft | 319 kts | 130° |
| 2026-04-24 20:28 | 11.67432 | 124.48547 | 14351 ft | 318 kts | 130° |
| 2026-04-24 20:28 | 11.66018 | 124.50278 | 14007 ft | 317 kts | 130° |
| 2026-04-24 20:28 | 11.64621 | 124.51984 | 13661 ft | 316 kts | 130° |
| 2026-04-24 20:29 | 11.63667 | 124.53150 | 13404 ft | 315 kts | 130° |
| 2026-04-24 20:29 | 11.61815 | 124.55418 | 13016 ft | 310 kts | 129° |
| 2026-04-24 20:29 | 11.60463 | 124.57077 | 13006 ft | 295 kts | 129° |
| 2026-04-24 20:29 | 11.59192 | 124.58635 | 13015 ft | 276 kts | 130° |
| 2026-04-24 20:30 | 11.57972 | 124.60130 | 12945 ft | 274 kts | 129° |
| 2026-04-24 20:30 | 11.56755 | 124.61621 | 12705 ft | 271 kts | 129° |
| 2026-04-24 20:30 | 11.55550 | 124.63099 | 12453 ft | 268 kts | 129° |
| 2026-04-24 20:30 | 11.54362 | 124.64554 | 12207 ft | 266 kts | 129° |
| 2026-04-24 20:31 | 11.53180 | 124.65997 | 11928 ft | 265 kts | 129° |
| 2026-04-24 20:31 | 11.52014 | 124.67420 | 11645 ft | 264 kts | 129° |
| 2026-04-24 20:31 | 11.50835 | 124.68861 | 11355 ft | 264 kts | 130° |
| 2026-04-24 20:31 | 11.49546 | 124.70182 | 11073 ft | 263 kts | 140° |
| 2026-04-24 20:32 | 11.48058 | 124.71265 | 10794 ft | 261 kts | 145° |
| 2026-04-24 20:32 | 11.46557 | 124.72303 | 10499 ft | 261 kts | 145° |
| 2026-04-24 20:32 | 11.45055 | 124.73344 | 10229 ft | 259 kts | 144° |
| 2026-04-24 20:32 | 11.43587 | 124.74363 | 9983 ft | 256 kts | 143° |
| 2026-04-24 20:33 | 11.42118 | 124.75384 | 9694 ft | 254 kts | 144° |
| 2026-04-24 20:33 | 11.40652 | 124.76402 | 9365 ft | 253 kts | 143° |
| 2026-04-24 20:33 | 11.39204 | 124.77406 | 9062 ft | 251 kts | 144° |
| 2026-04-24 20:33 | 11.37759 | 124.78408 | 8732 ft | 250 kts | 144° |
| 2026-04-24 20:34 | 11.36318 | 124.79407 | 8407 ft | 250 kts | 144° |
| 2026-04-24 20:34 | 11.34903 | 124.80388 | 8100 ft | 248 kts | 143° |
| 2026-04-24 20:34 | 11.33484 | 124.81370 | 7804 ft | 246 kts | 144° |
| 2026-04-24 20:34 | 11.32070 | 124.82350 | 7465 ft | 245 kts | 143° |
| 2026-04-24 20:35 | 11.30669 | 124.83320 | 7175 ft | 242 kts | 143° |
| 2026-04-24 20:35 | 11.29283 | 124.84280 | 6868 ft | 240 kts | 144° |
| 2026-04-24 20:35 | 11.27903 | 124.85237 | 6544 ft | 240 kts | 144° |
| 2026-04-24 20:35 | 11.26465 | 124.86107 | 6195 ft | 240 kts | 154° |
| 2026-04-24 20:36 | 11.24889 | 124.86624 | 6021 ft | 233 kts | 166° |
| 2026-04-24 20:36 | 11.23378 | 124.86951 | 6021 ft | 221 kts | 165° |
| 2026-04-24 20:36 | 11.21854 | 124.87292 | 6023 ft | 222 kts | 165° |
| 2026-04-24 20:36 | 11.20345 | 124.87636 | 5925 ft | 222 kts | 165° |
| 2026-04-24 20:37 | 11.18859 | 124.87973 | 5691 ft | 221 kts | 165° |
| 2026-04-24 20:37 | 11.17376 | 124.88306 | 5445 ft | 215 kts | 165° |
| 2026-04-24 20:37 | 11.15932 | 124.88629 | 5205 ft | 211 kts | 165° |
| 2026-04-24 20:37 | 11.14501 | 124.88949 | 4967 ft | 210 kts | 165° |
| 2026-04-24 20:38 | 11.13079 | 124.89266 | 4716 ft | 209 kts | 165° |
| 2026-04-24 20:38 | 11.11659 | 124.89584 | 4447 ft | 209 kts | 165° |
| 2026-04-24 20:38 | 11.10718 | 124.89795 | 4270 ft | 209 kts | 164° |
| 2026-04-24 20:38 | 11.09270 | 124.90119 | 4001 ft | 209 kts | 163° |
| 2026-04-24 20:39 | 11.08180 | 124.90362 | 3780 ft | 211 kts | 164° |
| 2026-04-24 20:39 | 11.07220 | 124.90576 | 3603 ft | 212 kts | 164° |
| 2026-04-24 20:39 | 11.05797 | 124.90944 | 3339 ft | 209 kts | 154° |
| 2026-04-24 20:40 | 11.04616 | 124.91756 | 3049 ft | 204 kts | 130° |
| 2026-04-24 20:40 | 11.03868 | 124.92963 | 2758 ft | 202 kts | 109° |
| 2026-04-24 20:40 | 11.03630 | 124.94364 | 2547 ft | 199 kts | 94° |
| 2026-04-24 20:40 | 11.03551 | 124.95729 | 2519 ft | 188 kts | 94° |
| 2026-04-24 20:41 | 11.03465 | 124.97037 | 2523 ft | 181 kts | 95° |
| 2026-04-24 20:41 | 11.03387 | 124.98232 | 2531 ft | 162 kts | 94° |
| 2026-04-24 20:41 | 11.03316 | 124.99325 | 2518 ft | 148 kts | 95° |
| 2026-04-24 20:41 | 11.03318 | 125.00333 | 2444 ft | 140 kts | 77° |
| 2026-04-24 20:42 | 11.03806 | 125.01179 | 2290 ft | 142 kts | 43° |
| 2026-04-24 20:42 | 11.04719 | 125.01579 | 2126 ft | 148 kts | 8° |
| 2026-04-24 20:42 | 11.05751 | 125.01645 | 1967 ft | 148 kts | 8° |
| 2026-04-24 20:42 | 11.06781 | 125.01713 | 1808 ft | 148 kts | 7° |
| 2026-04-24 20:43 | 11.07794 | 125.01780 | 1757 ft | 148 kts | 8° |
| 2026-04-24 20:43 | 11.08823 | 125.01849 | 1725 ft | 147 kts | 8° |
| 2026-04-24 20:43 | 11.09850 | 125.01919 | 1725 ft | 147 kts | 8° |
| 2026-04-24 20:43 | 11.10877 | 125.01988 | 1731 ft | 149 kts | 8° |
| 2026-04-24 20:44 | 11.11904 | 125.02058 | 1722 ft | 147 kts | 8° |
| 2026-04-24 20:44 | 11.12923 | 125.02126 | 1718 ft | 149 kts | 6° |
| 2026-04-24 20:44 | 11.13966 | 125.02195 | 1636 ft | 150 kts | 7° |
| 2026-04-24 20:44 | 11.14979 | 125.02262 | 1399 ft | 143 kts | 7° |
| 2026-04-24 20:45 | 11.15977 | 125.02328 | 1204 ft | 143 kts | 6° |
| 2026-04-24 20:45 | 11.16964 | 125.02392 | 1022 ft | 141 kts | 5° |
| 2026-04-24 20:45 | 11.17936 | 125.02456 | 836 ft | 140 kts | 6° |
| 2026-04-24 20:45 | 11.18911 | 125.02520 | 662 ft | 141 kts | 6° |
| 2026-04-24 20:46 | 11.19886 | 125.02584 | 452 ft | 141 kts | 8° |
| 2026-04-24 20:46 | 11.20872 | 125.02646 | 229 ft | 142 kts | 7° |
| 2026-04-24 20:46 | 11.21854 | 125.02714 | 54 ft | 141 kts | 6° |
| 2026-04-24 20:46 | 11.22759 | 125.02777 | 12 ft | 111 kts | 1° |
| 2026-04-24 20:47 | 11.23235 | 125.02805 | 9 ft | 37 kts | 4° |
| 2026-04-24 20:47 | 11.23466 | 125.02822 | 11 ft | 32 kts | 4° |
| 2026-04-24 20:47 | 11.23607 | 125.02830 | 11 ft | 9 kts | 3° |
| 2026-04-24 20:47 | 11.23661 | 125.02816 | 13 ft | 8 kts | 329° |
| 2026-04-24 20:48 | 11.23710 | 125.02817 | 12 ft | 8 kts | 46° |
| 2026-04-24 20:48 | 11.23686 | 125.02846 | 13 ft | 8 kts | 191° |
| 2026-04-24 20:48 | 11.23618 | 125.02830 | 15 ft | 12 kts | 185° |
| 2026-04-24 20:48 | 11.23508 | 125.02824 | 13 ft | 19 kts | 184° |
| 2026-04-24 20:49 | 11.23366 | 125.02814 | 9 ft | 20 kts | 184° |
| 2026-04-24 20:49 | 11.23213 | 125.02804 | 9 ft | 23 kts | 184° |
| 2026-04-24 20:49 | 11.23047 | 125.02794 | 10 ft | 25 kts | 184° |
| 2026-04-24 20:49 | 11.22867 | 125.02782 | 9 ft | 27 kts | 184° |
| 2026-04-24 20:50 | 11.22739 | 125.02773 | 10 ft | 19 kts | 183° |
| 2026-04-24 20:50 | 11.22636 | 125.02767 | 11 ft | 11 kts | 183° |
| 2026-04-24 20:50 | 11.22570 | 125.02761 | 13 ft | 9 kts | 197° |
| 2026-04-24 20:50 | 11.22564 | 125.02713 | 11 ft | 8 kts | 277° |
| 2026-04-24 20:51 | 11.22572 | 125.02665 | 11 ft | 6 kts | 296° |
| 2026-04-24 20:51 | 11.22586 | 125.02647 | 12 ft | 0 kts | 308° |